| time (UTC) | temp C | wind direction | speed KPH | gust KPH | rain 1hr cm | rain 24hr cm | rain mn cm | humidity % | barometer mb |
| 20260504081703 | 9 | 186 | 1.6 | 1.6 | 0.00 | 0.00 | 0.00 | 78 | 1004.8 |
| 20260504081159 | 9 | 216 | 0.0 | 0.0 | 0.00 | 0.00 | 0.00 | 79 | 1004.7 |
| 20260504080655 | 9 | 177 | 3.2 | 3.2 | 0.00 | 0.00 | 0.00 | 78 | 1004.5 |
| 20260504080152 | 9 | 208 | 0.0 | 0.0 | 0.00 | 0.00 | 0.00 | 78 | 1004.8 |
| 20260504070120 | 11 | 212 | 0.0 | 0.0 | 0.00 | 0.00 | 0.00 | 71 | 1005.1 |
| 20260504050509 | 14 | 204 | 0.0 | 0.0 | 0.00 | 0.00 | 0.00 | 60 | 1006.3 |
| 20260504050005 | 14 | 217 | 1.6 | 1.6 | 0.00 | 0.00 | 0.00 | 60 | 1006.6 |
| 20260504045502 | 15 | 212 | 0.0 | 0.0 | 0.00 | 0.00 | 0.00 | 59 | 1006.5 |
| 20260504044957 | 15 | 289 | 1.6 | 1.6 | 0.00 | 0.00 | 0.00 | 58 | 1006.5 |
| 20260504044455 | 15 | 206 | 0.0 | 0.0 | 0.00 | 0.00 | 0.00 | 58 | 1006.4 |
| 20260504043952 | 15 | 206 | 0.0 | 0.0 | 0.00 | 0.00 | 0.00 | 58 | 1006.6 |
| 20260504043449 | 15 | 208 | 1.6 | 1.6 | 0.00 | 0.00 | 0.00 | 58 | 1006.5 |
| 20260504042947 | 15 | 201 | 0.0 | 1.6 | 0.00 | 0.00 | 0.00 | 58 | 1006.5 |
| 20260504042443 | 15 | 193 | 3.2 | 3.2 | 0.00 | 0.00 | 0.00 | 57 | 1006.7 |
| 20260504041940 | 15 | 201 | 0.0 | 0.0 | 0.00 | 0.00 | 0.00 | 56 | 1006.5 |
| 20260504041436 | 15 | 231 | 0.0 | 0.0 | 0.00 | 0.00 | 0.00 | 56 | 1006.5 |
| 20260504040932 | 16 | 218 | 1.6 | 1.6 | 0.00 | 0.00 | 0.00 | 55 | 1006.8 |
| 20260504040430 | 16 | 171 | 1.6 | 3.2 | 0.00 | 0.00 | 0.00 | 55 | 1006.7 |
| 20260504035926 | 16 | 202 | 0.0 | 1.6 | 0.00 | 0.00 | 0.00 | 55 | 1006.6 |
| 20260504035423 | 16 | 201 | 0.0 | 1.6 | 0.00 | 0.00 | 0.00 | 54 | 1006.6 |
| 20260504034920 | 16 | 249 | 3.2 | 8.0 | 0.00 | 0.00 | 0.00 | 54 | 1006.6 |
| 20260504034418 | 16 | 213 | 1.6 | 1.6 | 0.00 | 0.00 | 0.00 | 54 | 1006.6 |
| 20260504033914 | 16 | 208 | 0.0 | 0.0 | 0.00 | 0.00 | 0.00 | 53 | 1006.6 |
| 20260504033412 | 16 | 219 | 0.0 | 1.6 | 0.00 | 0.00 | 0.00 | 52 | 1006.6 |
| 20260504032909 | 16 | 201 | 0.0 | 0.0 | 0.00 | 0.00 | 0.00 | 52 | 1006.7 |
| 20260504032406 | 16 | 206 | 3.2 | 4.8 | 0.00 | 0.00 | 0.00 | 51 | 1006.7 |
| 20260504031902 | 16 | 219 | 3.2 | 3.2 | 0.00 | 0.00 | 0.00 | 52 | 1006.8 |
| 20260504031400 | 17 | 206 | 0.0 | 0.0 | 0.00 | 0.00 | 0.00 | 51 | 1006.8 |
| 20260504030856 | 17 | 222 | 0.0 | 0.0 | 0.00 | 0.00 | 0.00 | 50 | 1006.9 |
| 20260504030353 | 17 | 209 | 0.0 | 0.0 | 0.00 | 0.00 | 0.00 | 50 | 1006.7 |
| 20260504025849 | 17 | 180 | 3.2 | 3.2 | 0.00 | 0.00 | 0.00 | 49 | 1006.7 |
| 20260504025346 | 17 | 182 | 1.6 | 1.6 | 0.00 | 0.00 | 0.00 | 50 | 1006.5 |
| 20260504024843 | 17 | 205 | 1.6 | 1.6 | 0.00 | 0.00 | 0.00 | 49 | 1006.5 |
| 20260504024339 | 17 | 219 | 1.6 | 1.6 | 0.00 | 0.00 | 0.00 | 49 | 1006.5 |
| 20260504023836 | 17 | 212 | 1.6 | 1.6 | 0.00 | 0.00 | 0.00 | 49 | 1006.5 |
| 20260504023333 | 17 | 226 | 0.0 | 1.6 | 0.00 | 0.00 | 0.00 | 50 | 1006.4 |
| 20260504022829 | 17 | 191 | 4.8 | 4.8 | 0.00 | 0.00 | 0.00 | 49 | 1006.4 |
| 20260504022326 | 17 | 182 | 1.6 | 1.6 | 0.00 | 0.00 | 0.00 | 49 | 1006.5 |
| 20260504021822 | 17 | 195 | 1.6 | 4.8 | 0.00 | 0.00 | 0.00 | 48 | 1006.2 |
| 20260504021320 | 18 | 208 | 0.0 | 1.6 | 0.00 | 0.00 | 0.00 | 49 | 1006.3 |
| 20260504020817 | 18 | 216 | 1.6 | 1.6 | 0.00 | 0.00 | 0.00 | 48 | 1006.2 |
| 20260504020314 | 18 | 224 | 3.2 | 8.0 | 0.00 | 0.00 | 0.00 | 47 | 1006.2 |
| 20260504015809 | 18 | 197 | 4.8 | 4.8 | 0.00 | 0.00 | 0.00 | 48 | 1006.3 |
| 20260504015306 | 18 | 231 | 1.6 | 3.2 | 0.00 | 0.00 | 0.00 | 47 | 1006.1 |
| 20260504014802 | 18 | 189 | 3.2 | 4.8 | 0.00 | 0.00 | 0.00 | 47 | 1006.0 |
| 20260504014258 | 18 | 188 | 1.6 | 1.6 | 0.00 | 0.00 | 0.00 | 46 | 1005.9 |
| 20260504013756 | 19 | 218 | 1.6 | 3.2 | 0.00 | 0.00 | 0.00 | 45 | 1006.0 |
| 20260504013253 | 20 | 216 | 3.2 | 4.8 | 0.00 | 0.00 | 0.00 | 45 | 1006.1 |
| 20260504012749 | 19 | 239 | 4.8 | 4.8 | 0.00 | 0.00 | 0.00 | 45 | 1006.0 |
| 20260504012248 | 20 | 252 | 1.6 | 1.6 | 0.00 | 0.00 | 0.00 | 45 | 1005.8 |
| 20260504011744 | 20 | 239 | 1.6 | 3.2 | 0.00 | 0.00 | 0.00 | 44 | 1006.0 |
| 20260504011241 | 20 | 220 | 1.6 | 3.2 | 0.00 | 0.00 | 0.00 | 44 | 1005.9 |
| 20260504010737 | 20 | 186 | 1.6 | 3.2 | 0.00 | 0.00 | 0.00 | 45 | 1005.7 |
| 20260504010233 | 20 | 162 | 4.8 | 8.0 | 0.00 | 0.00 | 0.00 | 44 | 1005.7 |
| 20260504005730 | 20 | 187 | 1.6 | 3.2 | 0.00 | 0.00 | 0.00 | 44 | 1005.7 |
| 20260504005227 | 20 | 160 | 6.4 | 11.3 | 0.00 | 0.00 | 0.00 | 44 | 1005.7 |
| 20260504004725 | 20 | 203 | 3.2 | 3.2 | 0.00 | 0.00 | 0.00 | 43 | 1005.6 |
| 20260504004221 | 20 | 205 | 1.6 | 1.6 | 0.00 | 0.00 | 0.00 | 43 | 1005.6 |
| 20260504003718 | 20 | 228 | 1.6 | 1.6 | 0.00 | 0.00 | 0.00 | 44 | 1005.6 |
| 20260504003215 | 21 | 216 | 1.6 | 1.6 | 0.00 | 0.00 | 0.00 | 44 | 1005.7 |
| 20260504002712 | 21 | 200 | 3.2 | 9.7 | 0.00 | 0.00 | 0.00 | 42 | 1005.5 |
| 20260504002209 | 21 | 201 | 4.8 | 4.8 | 0.00 | 0.00 | 0.00 | 42 | 1005.5 |
| 20260504001707 | 21 | 208 | 4.8 | 4.8 | 0.00 | 0.00 | 0.00 | 42 | 1005.4 |
| 20260504001203 | 21 | 246 | 6.4 | 9.7 | 0.00 | 0.00 | 0.00 | 43 | 1005.6 |
| 20260504000700 | 21 | 202 | 1.6 | 3.2 | 0.00 | 0.00 | 0.00 | 42 | 1005.7 |
| 20260504000157 | 21 | 222 | 11.3 | 16.1 | 0.00 | 0.00 | 0.00 | 42 | 1005.5 |
| 20260503235655 | 21 | 234 | 3.2 | 3.2 | 0.00 | 0.00 | 0.00 | 42 | 1005.5 |
| 20260503235151 | 21 | 199 | 0.0 | 1.6 | 0.00 | 0.00 | 0.00 | 43 | 1005.3 |
| 20260503234650 | 21 | 216 | 4.8 | 8.0 | 0.00 | 0.00 | 0.00 | 42 | 1005.6 |
| 20260503234148 | 21 | 188 | 4.8 | 4.8 | 0.00 | 0.00 | 0.00 | 43 | 1005.6 |
| 20260503233644 | 22 | 175 | 3.2 | 3.2 | 0.00 | 0.00 | 0.00 | 43 | 1005.6 |
| 20260503233140 | 22 | 229 | 8.0 | 9.7 | 0.00 | 0.00 | 0.00 | 42 | 1005.8 |
| 20260503232637 | 22 | 214 | 8.0 | 11.3 | 0.00 | 0.00 | 0.00 | 42 | 1005.8 |
| 20260503232134 | 22 | 214 | 3.2 | 3.2 | 0.00 | 0.00 | 0.00 | 43 | 1005.8 |
| 20260503231632 | 21 | 146 | 3.2 | 3.2 | 0.00 | 0.00 | 0.00 | 43 | 1005.7 |
| 20260503231128 | 21 | 198 | 4.8 | 8.0 | 0.00 | 0.00 | 0.00 | 43 | 1005.7 |
| 20260503230625 | 21 | 255 | 6.4 | 8.0 | 0.00 | 0.00 | 0.00 | 43 | 1006.0 |
| 20260503230123 | 21 | 204 | 3.2 | 3.2 | 0.00 | 0.00 | 0.00 | 43 | 1005.9 |
| 20260503225620 | 22 | 164 | 1.6 | 1.6 | 0.00 | 0.00 | 0.00 | 42 | 1005.9 |
| 20260503225119 | 22 | 225 | 6.4 | 12.9 | 0.00 | 0.00 | 0.00 | 43 | 1005.9 |
| 20260503224617 | 22 | 228 | 6.4 | 8.0 | 0.00 | 0.00 | 0.00 | 42 | 1005.8 |
| 20260503224115 | 22 | 223 | 1.6 | 1.6 | 0.00 | 0.00 | 0.00 | 41 | 1005.9 |
| 20260503223613 | 22 | 238 | 3.2 | 4.8 | 0.00 | 0.00 | 0.00 | 41 | 1005.9 |
| 20260503223108 | 22 | 317 | 14.5 | 24.1 | 0.00 | 0.00 | 0.00 | 41 | 1006.1 |
| 20260503222606 | 22 | 198 | 6.4 | 9.7 | 0.00 | 0.00 | 0.00 | 41 | 1005.9 |
| 20260503222104 | 22 | 228 | 11.3 | 20.9 | 0.00 | 0.00 | 0.00 | 41 | 1005.9 |
| 20260503221602 | 22 | 300 | 4.8 | 9.7 | 0.00 | 0.00 | 0.00 | 41 | 1005.7 |
| 20260503221059 | 22 | 251 | 11.3 | 17.7 | 0.00 | 0.00 | 0.00 | 40 | 1005.9 |
| 20260503220555 | 22 | 285 | 12.9 | 17.7 | 0.00 | 0.00 | 0.00 | 40 | 1006.0 |
| 20260503220053 | 22 | 234 | 9.7 | 14.5 | 0.00 | 0.00 | 0.00 | 39 | 1006.0 |
| 20260503215549 | 22 | 311 | 11.3 | 14.5 | 0.00 | 0.00 | 0.00 | 39 | 1005.9 |
| 20260503215046 | 22 | 177 | 4.8 | 9.7 | 0.00 | 0.00 | 0.00 | 39 | 1006.0 |
| 20260503214544 | 22 | 196 | 3.2 | 3.2 | 0.00 | 0.00 | 0.00 | 40 | 1006.0 |
| 20260503214041 | 22 | 190 | 3.2 | 4.8 | 0.00 | 0.00 | 0.00 | 39 | 1005.9 |
| 20260503213539 | 22 | 204 | 1.6 | 4.8 | 0.00 | 0.00 | 0.00 | 39 | 1006.0 |
| 20260503213036 | 23 | 168 | 4.8 | 8.0 | 0.00 | 0.00 | 0.00 | 39 | 1006.1 |
| 20260503212533 | 23 | 283 | 3.2 | 4.8 | 0.00 | 0.00 | 0.00 | 39 | 1006.0 |
| 20260503212030 | 23 | 160 | 6.4 | 8.0 | 0.00 | 0.00 | 0.00 | 39 | 1006.0 |
| 20260503211527 | 22 | 176 | 1.6 | 3.2 | 0.00 | 0.00 | 0.00 | 40 | 1006.2 |
| 20260503211023 | 22 | 208 | 4.8 | 8.0 | 0.00 | 0.00 | 0.00 | 39 | 1006.0 |
| 20260503210520 | 22 | 219 | 1.6 | 1.6 | 0.00 | 0.00 | 0.00 | 41 | 1006.2 |
| 20260503210016 | 22 | 164 | 3.2 | 3.2 | 0.00 | 0.00 | 0.00 | 40 | 1006.3 |
| 20260503205512 | 22 | 203 | 3.2 | 4.8 | 0.00 | 0.00 | 0.00 | 41 | 1006.3 |
| 20260503205009 | 22 | 206 | 8.0 | 11.3 | 0.00 | 0.00 | 0.00 | 39 | 1006.6 |
| 20260503204506 | 22 | 304 | 8.0 | 11.3 | 0.00 | 0.00 | 0.00 | 40 | 1006.3 |
| 20260503204003 | 22 | 238 | 9.7 | 14.5 | 0.00 | 0.00 | 0.00 | 39 | 1006.5 |
| 20260503203500 | 22 | 147 | 11.3 | 12.9 | 0.00 | 0.00 | 0.00 | 40 | 1006.6 |
| 20260503202956 | 22 | 173 | 4.8 | 8.0 | 0.00 | 0.00 | 0.00 | 40 | 1006.6 |
| 20260503202455 | 22 | 6 | 11.3 | 14.5 | 0.00 | 0.00 | 0.00 | 40 | 1006.5 |
| 20260503201953 | 23 | 201 | 6.4 | 9.7 | 0.00 | 0.00 | 0.00 | 40 | 1006.7 |
| 20260503201450 | 22 | 133 | 8.0 | 9.7 | 0.00 | 0.00 | 0.00 | 41 | 1006.8 |
| 20260503200947 | 21 | 162 | 3.2 | 4.8 | 0.00 | 0.00 | 0.00 | 42 | 1006.9 |
| 20260503200444 | 21 | 247 | 6.4 | 11.3 | 0.00 | 0.00 | 0.00 | 42 | 1006.8 |
| 20260503195940 | 22 | 351 | 6.4 | 9.7 | 0.00 | 0.00 | 0.00 | 40 | 1007.0 |
| 20260503195438 | 21 | 206 | 8.0 | 9.7 | 0.00 | 0.00 | 0.00 | 41 | 1006.9 |
| 20260503194934 | 21 | 171 | 4.8 | 8.0 | 0.00 | 0.00 | 0.00 | 41 | 1007.1 |
| 20260503194431 | 21 | 183 | 1.6 | 3.2 | 0.00 | 0.00 | 0.00 | 44 | 1007.2 |
| 20260503193926 | 21 | 209 | 1.6 | 3.2 | 0.00 | 0.00 | 0.00 | 43 | 1007.2 |
| 20260503193422 | 21 | 240 | 3.2 | 8.0 | 0.00 | 0.00 | 0.00 | 42 | 1007.3 |
| 20260503192918 | 21 | 203 | 1.6 | 3.2 | 0.00 | 0.00 | 0.00 | 43 | 1007.3 |
| 20260503192415 | 21 | 217 | 3.2 | 4.8 | 0.00 | 0.00 | 0.00 | 40 | 1007.5 |
| 20260503191911 | 21 | 210 | 9.7 | 20.9 | 0.00 | 0.00 | 0.00 | 40 | 1007.6 |
| 20260503191408 | 21 | 216 | 11.3 | 20.9 | 0.00 | 0.00 | 0.00 | 43 | 1007.2 |
| 20260503190904 | 21 | 222 | 3.2 | 3.2 | 0.00 | 0.00 | 0.00 | 43 | 1007.3 |
| 20260503190402 | 21 | 173 | 8.0 | 11.3 | 0.00 | 0.00 | 0.00 | 43 | 1007.5 |
| 20260503185858 | 20 | 218 | 9.7 | 17.7 | 0.00 | 0.00 | 0.00 | 45 | 1007.6 |
| 20260503185355 | 20 | 234 | 6.4 | 9.7 | 0.00 | 0.00 | 0.00 | 43 | 1007.6 |
| 20260503184854 | 20 | 243 | 12.9 | 17.7 | 0.00 | 0.00 | 0.00 | 42 | 1007.5 |
| 20260503184351 | 21 | 221 | 4.8 | 8.0 | 0.00 | 0.00 | 0.00 | 42 | 1007.6 |
| 20260503183847 | 20 | 253 | 3.2 | 4.8 | 0.00 | 0.00 | 0.00 | 43 | 1007.7 |
| 20260503183344 | 20 | 338 | 12.9 | 20.9 | 0.00 | 0.00 | 0.00 | 43 | 1007.9 |
| 20260503182841 | 20 | 269 | 8.0 | 11.3 | 0.00 | 0.00 | 0.00 | 43 | 1008.0 |
| 20260503182340 | 19 | 289 | 9.7 | 12.9 | 0.00 | 0.00 | 0.00 | 43 | 1007.9 |
| 20260503181837 | 20 | 251 | 16.1 | 24.1 | 0.00 | 0.00 | 0.00 | 41 | 1007.9 |
| 20260503181334 | 20 | 216 | 8.0 | 17.7 | 0.00 | 0.00 | 0.00 | 43 | 1008.1 |
| 20260503180830 | 20 | 176 | 9.7 | 11.3 | 0.00 | 0.00 | 0.00 | 44 | 1008.0 |
| 20260503180328 | 20 | 202 | 6.4 | 14.5 | 0.00 | 0.00 | 0.00 | 44 | 1008.1 |
| 20260503175824 | 18 | 146 | 9.7 | 17.7 | 0.00 | 0.00 | 0.00 | 45 | 1008.3 |
| 20260503175323 | 18 | 202 | 11.3 | 14.5 | 0.00 | 0.00 | 0.00 | 44 | 1008.4 |
| 20260503174818 | 18 | 243 | 6.4 | 8.0 | 0.00 | 0.00 | 0.00 | 45 | 1008.6 |
| 20260503174316 | 18 | 182 | 14.5 | 16.1 | 0.00 | 0.00 | 0.00 | 44 | 1008.8 |
| 20260503173812 | 18 | 207 | 6.4 | 9.7 | 0.00 | 0.00 | 0.00 | 46 | 1009.0 |
| 20260503173308 | 18 | 211 | 8.0 | 14.5 | 0.00 | 0.00 | 0.00 | 44 | 1009.0 |
| 20260503172805 | 18 | 173 | 8.0 | 9.7 | 0.00 | 0.00 | 0.00 | 44 | 1008.9 |
| 20260503172305 | 18 | 170 | 9.7 | 12.9 | 0.00 | 0.00 | 0.00 | 44 | 1009.0 |
| 20260503171758 | 18 | 159 | 8.0 | 12.9 | 0.00 | 0.00 | 0.00 | 46 | 1008.9 |
| 20260503171255 | 18 | 158 | 12.9 | 16.1 | 0.00 | 0.00 | 0.00 | 45 | 1008.9 |
| 20260503170752 | 18 | 180 | 11.3 | 16.1 | 0.00 | 0.00 | 0.00 | 45 | 1009.1 |
| 20260503170249 | 18 | 199 | 3.2 | 8.0 | 0.00 | 0.00 | 0.00 | 45 | 1009.1 |
| 20260503160211 | 14 | 185 | 1.6 | 3.2 | 0.00 | 0.00 | 0.00 | 55 | 1010.4 |
| 20260503150641 | 11 | 160 | 8.0 | 8.0 | 0.00 | 0.00 | 0.00 | 59 | 1011.4 |
| 20260503150137 | 11 | 185 | 4.8 | 8.0 | 0.00 | 0.00 | 0.00 | 61 | 1011.3 |
| 20260503131031 | 10 | 188 | 3.2 | 3.2 | 0.00 | 0.00 | 0.00 | 66 | 1013.4 |
| 20260503130528 | 10 | 200 | 1.6 | 3.2 | 0.00 | 0.00 | 0.00 | 65 | 1013.8 |
| 20260503110419 | 10 | 206 | 1.6 | 1.6 | 0.00 | 0.00 | 0.00 | 56 | 1013.5 |